sensor_id;sensor_type;location;lat;lon;timestamp;pressure;altitude;pressure_sealevel;temperature;humidity
25420;BME280;13354;48.174;11.566;2023-06-04T00:00:25;95654.22;;;17.55;51.46
25420;BME280;13354;48.174;11.566;2023-06-04T00:02:50;95655.53;;;17.41;52.13
25420;BME280;13354;48.174;11.566;2023-06-04T00:05:15;95656.50;;;17.34;52.45
25420;BME280;13354;48.174;11.566;2023-06-04T00:07:41;95659.97;;;17.35;52.50
25420;BME280;13354;48.174;11.566;2023-06-04T00:10:06;95652.97;;;17.34;52.70
25420;BME280;13354;48.174;11.566;2023-06-04T00:12:32;95649.59;;;17.27;52.32
25420;BME280;13354;48.174;11.566;2023-06-04T00:14:57;95643.34;;;17.21;52.18
25420;BME280;13354;48.174;11.566;2023-06-04T00:17:22;95655.31;;;17.19;53.23
25420;BME280;13354;48.174;11.566;2023-06-04T00:19:48;95647.06;;;17.08;53.20
25420;BME280;13354;48.174;11.566;2023-06-04T00:22:13;95646.97;;;17.03;53.31
25420;BME280;13354;48.174;11.566;2023-06-04T00:24:39;95644.53;;;17.02;53.14
25420;BME280;13354;48.174;11.566;2023-06-04T00:27:08;95645.09;;;16.92;53.43
25420;BME280;13354;48.174;11.566;2023-06-04T00:29:33;95646.84;;;16.86;53.70
25420;BME280;13354;48.174;11.566;2023-06-04T00:31:59;95645.00;;;16.87;53.85
25420;BME280;13354;48.174;11.566;2023-06-04T00:34:24;95644.97;;;16.75;54.09
25420;BME280;13354;48.174;11.566;2023-06-04T00:36:50;95650.44;;;16.80;53.93
25420;BME280;13354;48.174;11.566;2023-06-04T00:39:15;95645.41;;;16.72;53.52
25420;BME280;13354;48.174;11.566;2023-06-04T00:41:40;95654.84;;;16.75;53.57
25420;BME280;13354;48.174;11.566;2023-06-04T00:44:06;95647.63;;;16.75;53.19
25420;BME280;13354;48.174;11.566;2023-06-04T00:46:32;95647.41;;;16.77;53.12
25420;BME280;13354;48.174;11.566;2023-06-04T00:48:58;95651.16;;;16.76;52.62
25420;BME280;13354;48.174;11.566;2023-06-04T00:51:24;95651.78;;;16.71;52.58
25420;BME280;13354;48.174;11.566;2023-06-04T00:53:50;95644.72;;;16.65;53.09
25420;BME280;13354;48.174;11.566;2023-06-04T00:56:16;95650.06;;;16.65;52.62
25420;BME280;13354;48.174;11.566;2023-06-04T00:58:41;95648.66;;;16.62;52.54
25420;BME280;13354;48.174;11.566;2023-06-04T01:01:15;95654.34;;;16.66;52.08
25420;BME280;13354;48.174;11.566;2023-06-04T01:03:45;95645.63;;;16.59;52.03
25420;BME280;13354;48.174;11.566;2023-06-04T01:06:21;95650.88;;;16.65;51.22
25420;BME280;13354;48.174;11.566;2023-06-04T01:08:49;95641.06;;;16.48;52.09
25420;BME280;13354;48.174;11.566;2023-06-04T01:11:18;95647.09;;;16.43;51.95
25420;BME280;13354;48.174;11.566;2023-06-04T01:13:43;95652.00;;;16.46;52.00
25420;BME280;13354;48.174;11.566;2023-06-04T01:16:09;95648.28;;;16.47;51.37
25420;BME280;13354;48.174;11.566;2023-06-04T01:18:38;95647.56;;;16.40;52.18
25420;BME280;13354;48.174;11.566;2023-06-04T01:21:07;95648.25;;;16.35;52.02
25420;BME280;13354;48.174;11.566;2023-06-04T01:23:40;95647.91;;;16.32;51.76
25420;BME280;13354;48.174;11.566;2023-06-04T01:26:10;95655.31;;;16.30;52.25
25420;BME280;13354;48.174;11.566;2023-06-04T01:28:37;95654.13;;;16.26;53.38
25420;BME280;13354;48.174;11.566;2023-06-04T01:31:03;95659.66;;;16.12;53.85
25420;BME280;13354;48.174;11.566;2023-06-04T01:33:29;95654.06;;;16.02;53.68
25420;BME280;13354;48.174;11.566;2023-06-04T01:35:55;95665.19;;;15.99;53.75
25420;BME280;13354;48.174;11.566;2023-06-04T01:38:21;95659.88;;;15.99;54.00
25420;BME280;13354;48.174;11.566;2023-06-04T01:40:46;95660.66;;;16.00;52.51
25420;BME280;13354;48.174;11.566;2023-06-04T01:43:12;95663.94;;;16.02;51.58
25420;BME280;13354;48.174;11.566;2023-06-04T01:45:38;95665.13;;;16.06;52.65
25420;BME280;13354;48.174;11.566;2023-06-04T01:48:05;95657.09;;;16.06;51.91
25420;BME280;13354;48.174;11.566;2023-06-04T01:50:30;95656.75;;;16.02;52.25
25420;BME280;13354;48.174;11.566;2023-06-04T01:52:56;95666.81;;;16.00;52.62
25420;BME280;13354;48.174;11.566;2023-06-04T01:55:22;95669.00;;;15.91;52.49
25420;BME280;13354;48.174;11.566;2023-06-04T01:57:48;95670.88;;;15.91;51.77
25420;BME280;13354;48.174;11.566;2023-06-04T02:00:14;95669.00;;;15.91;51.85
25420;BME280;13354;48.174;11.566;2023-06-04T02:02:40;95668.63;;;15.88;51.44
25420;BME280;13354;48.174;11.566;2023-06-04T02:05:07;95671.81;;;15.78;51.17
25420;BME280;13354;48.174;11.566;2023-06-04T02:07:37;95671.53;;;15.68;52.07
25420;BME280;13354;48.174;11.566;2023-06-04T02:10:10;95676.88;;;15.68;52.40
25420;BME280;13354;48.174;11.566;2023-06-04T02:12:37;95677.72;;;15.68;52.93
25420;BME280;13354;48.174;11.566;2023-06-04T02:15:04;95675.91;;;15.62;53.50
25420;BME280;13354;48.174;11.566;2023-06-04T02:17:29;95685.22;;;15.53;53.58
25420;BME280;13354;48.174;11.566;2023-06-04T02:19:58;95672.13;;;15.52;53.04
25420;BME280;13354;48.174;11.566;2023-06-04T02:22:24;95671.50;;;15.50;53.28
25420;BME280;13354;48.174;11.566;2023-06-04T02:24:49;95669.38;;;15.40;54.06
25420;BME280;13354;48.174;11.566;2023-06-04T02:27:15;95668.34;;;15.41;54.96
25420;BME280;13354;48.174;11.566;2023-06-04T02:29:41;95672.25;;;15.38;54.58
25420;BME280;13354;48.174;11.566;2023-06-04T02:32:07;95668.63;;;15.33;54.47
25420;BME280;13354;48.174;11.566;2023-06-04T02:34:33;95671.97;;;15.28;55.40
25420;BME280;13354;48.174;11.566;2023-06-04T02:37:02;95674.72;;;15.21;55.57
25420;BME280;13354;48.174;11.566;2023-06-04T02:39:28;95676.75;;;15.19;56.20
25420;BME280;13354;48.174;11.566;2023-06-04T02:41:53;95681.34;;;15.12;56.69
25420;BME280;13354;48.174;11.566;2023-06-04T02:44:19;95676.31;;;15.04;56.61
25420;BME280;13354;48.174;11.566;2023-06-04T02:46:44;95683.97;;;14.94;56.94
25420;BME280;13354;48.174;11.566;2023-06-04T02:49:10;95683.41;;;14.92;56.73
25420;BME280;13354;48.174;11.566;2023-06-04T02:51:39;95684.88;;;14.88;57.45
25420;BME280;13354;48.174;11.566;2023-06-04T02:54:05;95685.59;;;14.77;57.62
25420;BME280;13354;48.174;11.566;2023-06-04T02:56:30;95690.53;;;14.73;57.89
25420;BME280;13354;48.174;11.566;2023-06-04T02:58:55;95685.63;;;14.70;58.32
25420;BME280;13354;48.174;11.566;2023-06-04T03:01:25;95688.28;;;14.70;58.58
25420;BME280;13354;48.174;11.566;2023-06-04T03:03:51;95691.41;;;14.67;59.76
25420;BME280;13354;48.174;11.566;2023-06-04T03:06:18;95686.72;;;14.62;59.94
25420;BME280;13354;48.174;11.566;2023-06-04T03:08:46;95686.09;;;14.60;60.50
25420;BME280;13354;48.174;11.566;2023-06-04T03:11:12;95689.19;;;14.57;60.20
25420;BME280;13354;48.174;11.566;2023-06-04T03:13:37;95695.41;;;14.51;60.90
25420;BME280;13354;48.174;11.566;2023-06-04T03:16:03;95692.16;;;14.42;60.81
25420;BME280;13354;48.174;11.566;2023-06-04T03:18:29;95697.97;;;14.33;61.15
25420;BME280;13354;48.174;11.566;2023-06-04T03:20:54;95700.00;;;14.31;61.58
25420;BME280;13354;48.174;11.566;2023-06-04T03:23:23;95695.09;;;14.27;61.61
25420;BME280;13354;48.174;11.566;2023-06-04T03:25:48;95705.19;;;14.25;61.66
25420;BME280;13354;48.174;11.566;2023-06-04T03:28:14;95715.41;;;14.29;61.58
25420;BME280;13354;48.174;11.566;2023-06-04T03:30:40;95708.41;;;14.27;62.23
25420;BME280;13354;48.174;11.566;2023-06-04T03:33:05;95711.31;;;14.26;62.40
25420;BME280;13354;48.174;11.566;2023-06-04T03:35:31;95712.50;;;14.30;62.47
25420;BME280;13354;48.174;11.566;2023-06-04T03:37:56;95715.81;;;14.25;62.16
25420;BME280;13354;48.174;11.566;2023-06-04T03:40:22;95717.00;;;14.36;61.55
25420;BME280;13354;48.174;11.566;2023-06-04T03:42:47;95714.75;;;14.33;61.33
25420;BME280;13354;48.174;11.566;2023-06-04T03:45:12;95719.66;;;14.36;61.59
25420;BME280;13354;48.174;11.566;2023-06-04T03:47:38;95719.78;;;14.48;60.08
25420;BME280;13354;48.174;11.566;2023-06-04T03:50:05;95724.50;;;14.53;59.98
25420;BME280;13354;48.174;11.566;2023-06-04T03:52:30;95722.56;;;14.66;58.70
25420;BME280;13354;48.174;11.566;2023-06-04T03:54:56;95720.69;;;14.67;58.89
25420;BME280;13354;48.174;11.566;2023-06-04T03:57:22;95724.78;;;14.69;59.50
25420;BME280;13354;48.174;11.566;2023-06-04T03:59:48;95723.22;;;14.62;60.84
25420;BME280;13354;48.174;11.566;2023-06-04T04:02:13;95724.88;;;14.56;60.77
25420;BME280;13354;48.174;11.566;2023-06-04T04:04:40;95722.88;;;14.52;61.39
25420;BME280;13354;48.174;11.566;2023-06-04T04:07:05;95721.59;;;14.54;61.42
25420;BME280;13354;48.174;11.566;2023-06-04T04:09:31;95719.94;;;14.60;60.65
25420;BME280;13354;48.174;11.566;2023-06-04T04:11:56;95721.94;;;14.64;60.00
25420;BME280;13354;48.174;11.566;2023-06-04T04:14:21;95724.78;;;14.69;59.86
25420;BME280;13354;48.174;11.566;2023-06-04T04:16:50;95725.81;;;14.68;59.73
25420;BME280;13354;48.174;11.566;2023-06-04T04:19:15;95732.59;;;14.64;60.64
25420;BME280;13354;48.174;11.566;2023-06-04T04:21:41;95727.88;;;14.66;60.15
25420;BME280;13354;48.174;11.566;2023-06-04T04:24:07;95732.41;;;14.66;59.91
25420;BME280;13354;48.174;11.566;2023-06-04T04:26:32;95735.88;;;14.66;59.20
25420;BME280;13354;48.174;11.566;2023-06-04T04:28:58;95730.94;;;14.70;57.88
25420;BME280;13354;48.174;11.566;2023-06-04T04:31:26;95736.59;;;14.80;57.77
25420;BME280;13354;48.174;11.566;2023-06-04T04:33:52;95739.47;;;14.79;57.75
25420;BME280;13354;48.174;11.566;2023-06-04T04:36:17;95740.50;;;14.78;58.12
25420;BME280;13354;48.174;11.566;2023-06-04T04:38:44;95743.31;;;14.83;57.77
25420;BME280;13354;48.174;11.566;2023-06-04T04:41:20;95748.66;;;14.83;58.01
25420;BME280;13354;48.174;11.566;2023-06-04T04:43:47;95747.84;;;14.82;58.01
25420;BME280;13354;48.174;11.566;2023-06-04T04:46:13;95749.81;;;14.93;57.28
25420;BME280;13354;48.174;11.566;2023-06-04T04:48:38;95752.13;;;14.83;58.14
25420;BME280;13354;48.174;11.566;2023-06-04T04:51:05;95753.56;;;14.86;58.18
25420;BME280;13354;48.174;11.566;2023-06-04T04:53:31;95752.91;;;14.90;58.01
25420;BME280;13354;48.174;11.566;2023-06-04T04:55:57;95754.72;;;14.96;57.73
25420;BME280;13354;48.174;11.566;2023-06-04T04:58:22;95751.81;;;14.98;57.03
25420;BME280;13354;48.174;11.566;2023-06-04T05:00:48;95760.03;;;14.96;57.08
25420;BME280;13354;48.174;11.566;2023-06-04T05:03:13;95753.38;;;15.06;55.89
25420;BME280;13354;48.174;11.566;2023-06-04T05:05:39;95756.94;;;15.00;56.26
25420;BME280;13354;48.174;11.566;2023-06-04T05:08:05;95759.88;;;15.16;56.53
25420;BME280;13354;48.174;11.566;2023-06-04T05:10:30;95764.72;;;15.26;56.21
25420;BME280;13354;48.174;11.566;2023-06-04T05:12:59;95758.41;;;15.20;56.26
25420;BME280;13354;48.174;11.566;2023-06-04T05:15:29;95760.63;;;15.23;56.87
25420;BME280;13354;48.174;11.566;2023-06-04T05:17:55;95765.75;;;15.25;56.90
25420;BME280;13354;48.174;11.566;2023-06-04T05:20:21;95769.00;;;15.27;57.08
25420;BME280;13354;48.174;11.566;2023-06-04T05:22:47;95773.72;;;15.32;56.75
25420;BME280;13354;48.174;11.566;2023-06-04T05:25:14;95777.63;;;15.29;56.85
25420;BME280;13354;48.174;11.566;2023-06-04T05:27:40;95779.25;;;15.30;57.21
25420;BME280;13354;48.174;11.566;2023-06-04T05:30:06;95773.84;;;15.37;56.73
25420;BME280;13354;48.174;11.566;2023-06-04T05:32:32;95773.81;;;15.43;56.30
25420;BME280;13354;48.174;11.566;2023-06-04T05:34:58;95776.94;;;15.59;54.68
25420;BME280;13354;48.174;11.566;2023-06-04T05:37:25;95781.09;;;15.55;55.68
25420;BME280;13354;48.174;11.566;2023-06-04T05:39:52;95783.56;;;15.50;55.66
25420;BME280;13354;48.174;11.566;2023-06-04T05:42:18;95779.59;;;15.59;55.37
25420;BME280;13354;48.174;11.566;2023-06-04T05:44:43;95778.53;;;15.66;55.09
25420;BME280;13354;48.174;11.566;2023-06-04T05:47:09;95786.25;;;15.75;54.09
25420;BME280;13354;48.174;11.566;2023-06-04T05:49:34;95783.75;;;15.80;53.07
25420;BME280;13354;48.174;11.566;2023-06-04T05:52:00;95782.53;;;15.76;52.84
25420;BME280;13354;48.174;11.566;2023-06-04T05:54:26;95788.84;;;15.81;53.32
25420;BME280;13354;48.174;11.566;2023-06-04T05:56:51;95792.94;;;15.84;53.54
25420;BME280;13354;48.174;11.566;2023-06-04T05:59:17;95797.72;;;15.93;53.42
25420;BME280;13354;48.174;11.566;2023-06-04T06:01:42;95795.97;;;15.87;54.11
25420;BME280;13354;48.174;11.566;2023-06-04T06:04:08;95797.66;;;15.82;55.11
25420;BME280;13354;48.174;11.566;2023-06-04T06:06:34;95799.59;;;15.93;55.09
25420;BME280;13354;48.174;11.566;2023-06-04T06:09:00;95799.66;;;16.05;53.59
25420;BME280;13354;48.174;11.566;2023-06-04T06:11:25;95806.84;;;16.04;55.24
25420;BME280;13354;48.174;11.566;2023-06-04T06:13:52;95804.50;;;16.14;54.43
25420;BME280;13354;48.174;11.566;2023-06-04T06:16:17;95802.84;;;16.32;53.82
25420;BME280;13354;48.174;11.566;2023-06-04T06:18:43;95797.63;;;16.37;54.06
25420;BME280;13354;48.174;11.566;2023-06-04T06:21:08;95799.50;;;16.36;53.42
25420;BME280;13354;48.174;11.566;2023-06-04T06:23:34;95803.22;;;16.35;54.20
25420;BME280;13354;48.174;11.566;2023-06-04T06:25:59;95803.34;;;16.40;54.96
25420;BME280;13354;48.174;11.566;2023-06-04T06:28:27;95807.84;;;16.58;53.96
25420;BME280;13354;48.174;11.566;2023-06-04T06:30:52;95809.34;;;16.54;54.44
25420;BME280;13354;48.174;11.566;2023-06-04T06:33:17;95813.31;;;16.63;53.63
25420;BME280;13354;48.174;11.566;2023-06-04T06:35:47;95819.94;;;16.61;54.10
25420;BME280;13354;48.174;11.566;2023-06-04T06:38:12;95820.59;;;16.75;53.77
25420;BME280;13354;48.174;11.566;2023-06-04T06:40:38;95823.19;;;16.81;53.64
25420;BME280;13354;48.174;11.566;2023-06-04T06:43:03;95820.91;;;16.97;53.27
25420;BME280;13354;48.174;11.566;2023-06-04T06:45:28;95815.69;;;17.02;53.58
25420;BME280;13354;48.174;11.566;2023-06-04T06:47:54;95826.53;;;17.19;54.20
25420;BME280;13354;48.174;11.566;2023-06-04T06:50:19;95822.25;;;17.29;55.37
25420;BME280;13354;48.174;11.566;2023-06-04T06:52:44;95825.44;;;17.38;52.57
25420;BME280;13354;48.174;11.566;2023-06-04T06:55:10;95823.91;;;17.54;51.90
25420;BME280;13354;48.174;11.566;2023-06-04T06:57:35;95817.28;;;17.68;51.33
25420;BME280;13354;48.174;11.566;2023-06-04T07:00:00;95818.47;;;17.72;50.70
25420;BME280;13354;48.174;11.566;2023-06-04T07:02:26;95821.25;;;17.66;50.15
25420;BME280;13354;48.174;11.566;2023-06-04T07:04:51;95816.41;;;17.86;50.88
25420;BME280;13354;48.174;11.566;2023-06-04T07:07:16;95816.97;;;17.88;49.72
25420;BME280;13354;48.174;11.566;2023-06-04T07:09:42;95822.88;;;18.14;51.50
25420;BME280;13354;48.174;11.566;2023-06-04T07:12:07;95820.63;;;18.63;51.25
25420;BME280;13354;48.174;11.566;2023-06-04T07:14:32;95820.38;;;19.21;51.50
25420;BME280;13354;48.174;11.566;2023-06-04T07:16:58;95813.59;;;19.81;48.33
25420;BME280;13354;48.174;11.566;2023-06-04T07:19:23;95807.13;;;20.43;49.23
25420;BME280;13354;48.174;11.566;2023-06-04T07:21:50;95808.50;;;20.67;44.10
25420;BME280;13354;48.174;11.566;2023-06-04T07:24:15;95809.19;;;21.07;44.72
25420;BME280;13354;48.174;11.566;2023-06-04T07:26:41;95805.28;;;21.52;44.15
25420;BME280;13354;48.174;11.566;2023-06-04T07:29:07;95805.59;;;21.98;42.78
25420;BME280;13354;48.174;11.566;2023-06-04T07:31:32;95801.84;;;22.51;43.65
25420;BME280;13354;48.174;11.566;2023-06-04T07:33:57;95801.50;;;23.26;41.96
25420;BME280;13354;48.174;11.566;2023-06-04T07:36:23;95806.13;;;23.46;40.16
25420;BME280;13354;48.174;11.566;2023-06-04T07:38:48;95801.50;;;23.36;41.09
25420;BME280;13354;48.174;11.566;2023-06-04T07:41:14;95800.41;;;23.93;39.70
25420;BME280;13354;48.174;11.566;2023-06-04T07:43:39;95800.06;;;24.30;38.73
25420;BME280;13354;48.174;11.566;2023-06-04T07:46:05;95803.78;;;24.50;38.82
25420;BME280;13354;48.174;11.566;2023-06-04T07:48:30;95800.16;;;24.70;37.43
25420;BME280;13354;48.174;11.566;2023-06-04T07:50:58;95801.75;;;25.30;38.27
25420;BME280;13354;48.174;11.566;2023-06-04T07:53:23;95805.00;;;25.62;38.28
25420;BME280;13354;48.174;11.566;2023-06-04T07:55:49;95808.41;;;25.43;37.39
25420;BME280;13354;48.174;11.566;2023-06-04T07:58:14;95803.47;;;25.50;38.28
25420;BME280;13354;48.174;11.566;2023-06-04T08:00:40;95804.91;;;25.72;36.95
25420;BME280;13354;48.174;11.566;2023-06-04T08:03:06;95801.81;;;25.89;36.16
25420;BME280;13354;48.174;11.566;2023-06-04T08:05:31;95805.44;;;25.45;35.35
25420;BME280;13354;48.174;11.566;2023-06-04T08:07:56;95803.75;;;25.83;37.21
25420;BME280;13354;48.174;11.566;2023-06-04T08:10:22;95797.63;;;25.33;36.35
25420;BME280;13354;48.174;11.566;2023-06-04T08:12:47;95796.47;;;25.73;36.17
25420;BME280;13354;48.174;11.566;2023-06-04T08:15:13;95803.16;;;25.18;35.76
25420;BME280;13354;48.174;11.566;2023-06-04T08:17:38;95801.19;;;25.28;35.97
25420;BME280;13354;48.174;11.566;2023-06-04T08:20:04;95808.34;;;25.14;36.17
25420;BME280;13354;48.174;11.566;2023-06-04T08:22:34;95806.38;;;24.75;36.25
25420;BME280;13354;48.174;11.566;2023-06-04T08:24:59;95803.81;;;24.99;36.50
25420;BME280;13354;48.174;11.566;2023-06-04T08:27:25;95802.28;;;24.83;37.97
25420;BME280;13354;48.174;11.566;2023-06-04T08:29:50;95799.97;;;25.05;37.21
25420;BME280;13354;48.174;11.566;2023-06-04T08:32:17;95805.44;;;25.45;37.11
25420;BME280;13354;48.174;11.566;2023-06-04T08:34:42;95805.38;;;25.11;35.55
25420;BME280;13354;48.174;11.566;2023-06-04T08:37:08;95808.47;;;24.89;36.24
25420;BME280;13354;48.174;11.566;2023-06-04T08:39:33;95804.50;;;25.20;35.78
25420;BME280;13354;48.174;11.566;2023-06-04T08:42:06;95808.59;;;24.63;35.78
25420;BME280;13354;48.174;11.566;2023-06-04T08:44:34;95801.66;;;24.42;35.83
25420;BME280;13354;48.174;11.566;2023-06-04T08:47:04;95811.72;;;24.21;36.73
25420;BME280;13354;48.174;11.566;2023-06-04T08:49:35;95810.84;;;24.35;37.25
25420;BME280;13354;48.174;11.566;2023-06-04T08:52:04;95811.59;;;24.62;37.14
25420;BME280;13354;48.174;11.566;2023-06-04T08:54:31;95815.97;;;24.37;36.71
25420;BME280;13354;48.174;11.566;2023-06-04T08:56:57;95806.91;;;24.77;37.03
25420;BME280;13354;48.174;11.566;2023-06-04T08:59:26;95799.09;;;24.66;36.52
25420;BME280;13354;48.174;11.566;2023-06-04T09:01:56;95811.56;;;24.67;37.63
25420;BME280;13354;48.174;11.566;2023-06-04T09:04:22;95801.69;;;24.91;36.89
25420;BME280;13354;48.174;11.566;2023-06-04T09:06:48;95806.59;;;24.89;37.90
25420;BME280;13354;48.174;11.566;2023-06-04T09:09:14;95807.75;;;24.73;37.43
25420;BME280;13354;48.174;11.566;2023-06-04T09:11:55;95806.13;;;24.67;37.43
25420;BME280;13354;48.174;11.566;2023-06-04T09:14:21;95806.88;;;24.82;37.54
25420;BME280;13354;48.174;11.566;2023-06-04T09:16:49;95802.19;;;24.49;36.13
25420;BME280;13354;48.174;11.566;2023-06-04T09:19:16;95806.53;;;24.34;36.90
25420;BME280;13354;48.174;11.566;2023-06-04T09:21:48;95812.22;;;24.23;37.14
25420;BME280;13354;48.174;11.566;2023-06-04T09:24:14;95809.38;;;24.69;38.81
25420;BME280;13354;48.174;11.566;2023-06-04T09:26:39;95810.88;;;24.30;37.52
25420;BME280;13354;48.174;11.566;2023-06-04T09:29:05;95809.16;;;24.55;36.75
25420;BME280;13354;48.174;11.566;2023-06-04T09:31:31;95806.63;;;24.79;35.43
25420;BME280;13354;48.174;11.566;2023-06-04T09:34:02;95808.94;;;24.41;35.83
25420;BME280;13354;48.174;11.566;2023-06-04T09:36:35;95810.88;;;24.30;36.42
25420;BME280;13354;48.174;11.566;2023-06-04T09:39:15;95807.84;;;24.47;37.37
25420;BME280;13354;48.174;11.566;2023-06-04T09:41:40;95800.34;;;24.89;36.32
25420;BME280;13354;48.174;11.566;2023-06-04T09:44:06;95797.31;;;25.00;34.97
25420;BME280;13354;48.174;11.566;2023-06-04T09:46:35;95799.28;;;24.85;35.47
25420;BME280;13354;48.174;11.566;2023-06-04T09:49:02;95792.41;;;25.08;36.38
25420;BME280;13354;48.174;11.566;2023-06-04T09:51:28;95798.19;;;25.35;35.29
25420;BME280;13354;48.174;11.566;2023-06-04T09:54:02;95797.25;;;25.11;34.40
25420;BME280;13354;48.174;11.566;2023-06-04T09:56:28;95793.25;;;24.98;34.56
25420;BME280;13354;48.174;11.566;2023-06-04T09:58:55;95795.84;;;25.18;34.66
25420;BME280;13354;48.174;11.566;2023-06-04T10:01:22;95799.59;;;25.27;34.40
25420;BME280;13354;48.174;11.566;2023-06-04T10:03:50;95798.69;;;24.93;34.11
25420;BME280;13354;48.174;11.566;2023-06-04T10:06:18;95790.00;;;24.96;34.35
25420;BME280;13354;48.174;11.566;2023-06-04T10:08:45;95791.53;;;25.51;34.27
25420;BME280;13354;48.174;11.566;2023-06-04T10:11:12;95788.88;;;25.81;34.37
25420;BME280;13354;48.174;11.566;2023-06-04T10:13:48;95786.16;;;26.34;35.72
25420;BME280;13354;48.174;11.566;2023-06-04T10:16:19;95787.09;;;26.43;33.13
25420;BME280;13354;48.174;11.566;2023-06-04T10:18:45;95787.88;;;27.10;32.63
25420;BME280;13354;48.174;11.566;2023-06-04T10:21:13;95789.94;;;27.00;32.49
25420;BME280;13354;48.174;11.566;2023-06-04T10:23:38;95786.28;;;26.47;31.11
25420;BME280;13354;48.174;11.566;2023-06-04T10:26:04;95792.84;;;26.41;32.64
25420;BME280;13354;48.174;11.566;2023-06-04T10:28:29;95795.16;;;26.53;31.58
25420;BME280;13354;48.174;11.566;2023-06-04T10:30:55;95796.13;;;26.14;31.90
25420;BME280;13354;48.174;11.566;2023-06-04T10:33:21;95786.13;;;26.82;33.89
25420;BME280;13354;48.174;11.566;2023-06-04T10:35:50;95787.69;;;27.91;32.94
25420;BME280;13354;48.174;11.566;2023-06-04T10:38:15;95782.22;;;28.51;31.25
25420;BME280;13354;48.174;11.566;2023-06-04T10:40:46;95791.56;;;28.04;28.84
25420;BME280;13354;48.174;11.566;2023-06-04T10:43:13;95796.00;;;28.00;29.51
25420;BME280;13354;48.174;11.566;2023-06-04T10:45:40;95793.56;;;28.12;29.42
25420;BME280;13354;48.174;11.566;2023-06-04T10:48:07;95796.91;;;28.09;28.73
25420;BME280;13354;48.174;11.566;2023-06-04T10:50:34;95793.25;;;27.67;29.16
25420;BME280;13354;48.174;11.566;2023-06-04T10:53:01;95788.31;;;28.02;29.95
25420;BME280;13354;48.174;11.566;2023-06-04T10:55:30;95780.53;;;27.81;29.77
25420;BME280;13354;48.174;11.566;2023-06-04T10:58:00;95778.13;;;27.93;28.92
25420;BME280;13354;48.174;11.566;2023-06-04T11:00:37;95772.34;;;28.41;30.36
25420;BME280;13354;48.174;11.566;2023-06-04T11:03:04;95769.22;;;28.62;29.51
25420;BME280;13354;48.174;11.566;2023-06-04T11:05:35;95772.84;;;28.57;29.57
25420;BME280;13354;48.174;11.566;2023-06-04T11:08:00;95784.63;;;28.25;28.78
25420;BME280;13354;48.174;11.566;2023-06-04T11:10:35;95794.94;;;27.82;28.96
25420;BME280;13354;48.174;11.566;2023-06-04T11:13:02;95790.53;;;27.34;30.15
25420;BME280;13354;48.174;11.566;2023-06-04T11:15:40;95779.44;;;26.93;30.28
25420;BME280;13354;48.174;11.566;2023-06-04T11:18:06;95774.44;;;26.62;31.85
25420;BME280;13354;48.174;11.566;2023-06-04T11:20:31;95773.41;;;26.96;32.74
25420;BME280;13354;48.174;11.566;2023-06-04T11:22:58;95775.34;;;27.14;32.09
25420;BME280;13354;48.174;11.566;2023-06-04T11:25:28;95775.69;;;27.08;31.47
25420;BME280;13354;48.174;11.566;2023-06-04T11:27:56;95777.00;;;27.10;29.97
25420;BME280;13354;48.174;11.566;2023-06-04T11:30:22;95775.41;;;27.28;30.57
25420;BME280;13354;48.174;11.566;2023-06-04T11:32:48;95780.34;;;27.26;30.19
25420;BME280;13354;48.174;11.566;2023-06-04T11:35:14;95774.31;;;27.29;31.32
25420;BME280;13354;48.174;11.566;2023-06-04T11:37:40;95767.28;;;27.42;30.64
25420;BME280;13354;48.174;11.566;2023-06-04T11:40:19;95771.84;;;27.46;30.96
25420;BME280;13354;48.174;11.566;2023-06-04T11:42:49;95773.22;;;27.63;30.93
25420;BME280;13354;48.174;11.566;2023-06-04T11:45:20;95771.94;;;27.41;30.47
25420;BME280;13354;48.174;11.566;2023-06-04T11:47:51;95765.81;;;27.50;30.33
25420;BME280;13354;48.174;11.566;2023-06-04T11:50:16;95767.22;;;27.47;29.99
25420;BME280;13354;48.174;11.566;2023-06-04T11:52:42;95767.22;;;27.47;30.22
25420;BME280;13354;48.174;11.566;2023-06-04T11:55:11;95768.28;;;27.13;30.13
25420;BME280;13354;48.174;11.566;2023-06-04T11:57:38;95757.94;;;27.15;29.60
25420;BME280;13354;48.174;11.566;2023-06-04T12:00:05;95759.25;;;27.18;29.51
25420;BME280;13354;48.174;11.566;2023-06-04T12:02:35;95754.69;;;27.13;30.76
25420;BME280;13354;48.174;11.566;2023-06-04T12:05:11;95749.78;;;26.96;30.29
25420;BME280;13354;48.174;11.566;2023-06-04T12:07:36;95751.97;;;27.13;30.31
25420;BME280;13354;48.174;11.566;2023-06-04T12:10:08;95754.84;;;27.03;29.12
25420;BME280;13354;48.174;11.566;2023-06-04T12:12:34;95748.41;;;27.18;30.03
25420;BME280;13354;48.174;11.566;2023-06-04T12:15:00;95744.56;;;27.52;29.47
25420;BME280;13354;48.174;11.566;2023-06-04T12:17:26;95746.22;;;27.34;29.37
25420;BME280;13354;48.174;11.566;2023-06-04T12:19:51;95756.31;;;26.95;29.10
25420;BME280;13354;48.174;11.566;2023-06-04T12:22:17;95756.16;;;26.68;29.39
25420;BME280;13354;48.174;11.566;2023-06-04T12:24:48;95758.84;;;26.49;28.94
25420;BME280;13354;48.174;11.566;2023-06-04T12:27:14;95754.59;;;26.62;30.87
25420;BME280;13354;48.174;11.566;2023-06-04T12:29:40;95747.50;;;26.85;29.31
25420;BME280;13354;48.174;11.566;2023-06-04T12:32:09;95753.16;;;27.07;30.83
25420;BME280;13354;48.174;11.566;2023-06-04T12:34:39;95750.66;;;27.30;30.06
25420;BME280;13354;48.174;11.566;2023-06-04T12:37:05;95744.22;;;27.39;28.84
25420;BME280;13354;48.174;11.566;2023-06-04T12:39:32;95745.97;;;27.49;28.22
25420;BME280;13354;48.174;11.566;2023-06-04T12:41:58;95747.78;;;27.40;27.90
25420;BME280;13354;48.174;11.566;2023-06-04T12:44:23;95746.66;;;27.41;30.21
25420;BME280;13354;48.174;11.566;2023-06-04T12:46:49;95738.97;;;27.62;29.08